sensor_id;sensor_type;location;lat;lon;timestamp;P1;durP1;ratioP1;P2;durP2;ratioP2
43146;SDS011;28752;48.266;7.402;2023-03-05T00:00:40;42.00;;;19.60;;
43146;SDS011;28752;48.266;7.402;2023-03-05T00:03:05;42.73;;;19.87;;
43146;SDS011;28752;48.266;7.402;2023-03-05T00:05:30;37.63;;;17.90;;
43146;SDS011;28752;48.266;7.402;2023-03-05T00:07:58;39.72;;;18.08;;
43146;SDS011;28752;48.266;7.402;2023-03-05T00:10:23;44.53;;;18.33;;
43146;SDS011;28752;48.266;7.402;2023-03-05T00:12:49;42.20;;;17.40;;
43146;SDS011;28752;48.266;7.402;2023-03-05T00:15:14;40.23;;;17.87;;
43146;SDS011;28752;48.266;7.402;2023-03-05T00:17:39;42.80;;;18.33;;
43146;SDS011;28752;48.266;7.402;2023-03-05T00:20:05;46.70;;;19.47;;
43146;SDS011;28752;48.266;7.402;2023-03-05T00:22:32;45.30;;;19.67;;
43146;SDS011;28752;48.266;7.402;2023-03-05T00:24:58;41.15;;;18.42;;
43146;SDS011;28752;48.266;7.402;2023-03-05T00:27:24;45.33;;;19.33;;
43146;SDS011;28752;48.266;7.402;2023-03-05T00:29:49;45.37;;;19.23;;
43146;SDS011;28752;48.266;7.402;2023-03-05T00:32:14;50.93;;;20.80;;
43146;SDS011;28752;48.266;7.402;2023-03-05T00:34:40;49.57;;;20.17;;
43146;SDS011;28752;48.266;7.402;2023-03-05T00:37:05;47.50;;;19.33;;
43146;SDS011;28752;48.266;7.402;2023-03-05T00:39:32;47.92;;;20.15;;
43146;SDS011;28752;48.266;7.402;2023-03-05T00:41:58;47.90;;;20.87;;
43146;SDS011;28752;48.266;7.402;2023-03-05T00:44:23;46.53;;;21.03;;
43146;SDS011;28752;48.266;7.402;2023-03-05T00:46:49;42.67;;;19.85;;
43146;SDS011;28752;48.266;7.402;2023-03-05T00:49:14;43.37;;;19.80;;
43146;SDS011;28752;48.266;7.402;2023-03-05T00:51:40;45.63;;;19.37;;
43146;SDS011;28752;48.266;7.402;2023-03-05T00:54:05;45.77;;;19.60;;
43146;SDS011;28752;48.266;7.402;2023-03-05T00:56:31;48.83;;;20.35;;
43146;SDS011;28752;48.266;7.402;2023-03-05T00:58:57;44.00;;;19.27;;
43146;SDS011;28752;48.266;7.402;2023-03-05T01:01:22;43.10;;;20.37;;
43146;SDS011;28752;48.266;7.402;2023-03-05T01:11:07;41.65;;;17.52;;
43146;SDS011;28752;48.266;7.402;2023-03-05T01:13:33;39.78;;;16.35;;
43146;SDS011;28752;48.266;7.402;2023-03-05T01:15:59;37.60;;;16.92;;
43146;SDS011;28752;48.266;7.402;2023-03-05T01:18:24;42.03;;;17.80;;
43146;SDS011;28752;48.266;7.402;2023-03-05T01:20:49;43.20;;;18.93;;
43146;SDS011;28752;48.266;7.402;2023-03-05T01:23:15;38.17;;;16.50;;
43146;SDS011;28752;48.266;7.402;2023-03-05T01:25:40;34.30;;;16.73;;
43146;SDS011;28752;48.266;7.402;2023-03-05T01:28:06;37.77;;;15.83;;
43146;SDS011;28752;48.266;7.402;2023-03-05T01:30:32;37.03;;;17.30;;
43146;SDS011;28752;48.266;7.402;2023-03-05T01:32:57;33.63;;;15.70;;
43146;SDS011;28752;48.266;7.402;2023-03-05T01:35:23;36.25;;;15.45;;
43146;SDS011;28752;48.266;7.402;2023-03-05T01:37:49;37.05;;;15.55;;
43146;SDS011;28752;48.266;7.402;2023-03-05T01:40:16;35.88;;;15.80;;
43146;SDS011;28752;48.266;7.402;2023-03-05T01:42:54;34.03;;;15.55;;
43146;SDS011;28752;48.266;7.402;2023-03-05T01:48:40;30.45;;;13.85;;
43146;SDS011;28752;48.266;7.402;2023-03-05T01:51:08;42.13;;;19.92;;
43146;SDS011;28752;48.266;7.402;2023-03-05T01:53:33;43.53;;;19.52;;
43146;SDS011;28752;48.266;7.402;2023-03-05T01:55:59;40.13;;;17.57;;
43146;SDS011;28752;48.266;7.402;2023-03-05T01:58:25;31.65;;;15.32;;
43146;SDS011;28752;48.266;7.402;2023-03-05T02:00:51;41.43;;;17.33;;
43146;SDS011;28752;48.266;7.402;2023-03-05T02:03:17;40.15;;;18.10;;
43146;SDS011;28752;48.266;7.402;2023-03-05T02:05:46;40.42;;;17.85;;
43146;SDS011;28752;48.266;7.402;2023-03-05T02:08:12;41.60;;;17.30;;
43146;SDS011;28752;48.266;7.402;2023-03-05T02:10:44;38.22;;;16.50;;
43146;SDS011;28752;48.266;7.402;2023-03-05T02:13:16;30.73;;;15.43;;
43146;SDS011;28752;48.266;7.402;2023-03-05T02:15:46;30.52;;;14.05;;
43146;SDS011;28752;48.266;7.402;2023-03-05T02:18:14;32.63;;;14.55;;
43146;SDS011;28752;48.266;7.402;2023-03-05T02:20:45;35.20;;;15.15;;
43146;SDS011;28752;48.266;7.402;2023-03-05T02:23:14;33.55;;;13.80;;
43146;SDS011;28752;48.266;7.402;2023-03-05T02:25:40;32.22;;;13.70;;
43146;SDS011;28752;48.266;7.402;2023-03-05T02:30:48;28.73;;;13.48;;
43146;SDS011;28752;48.266;7.402;2023-03-05T02:33:15;32.17;;;13.17;;
43146;SDS011;28752;48.266;7.402;2023-03-05T02:35:41;34.15;;;14.32;;
43146;SDS011;28752;48.266;7.402;2023-03-05T02:38:11;28.27;;;12.80;;
43146;SDS011;28752;48.266;7.402;2023-03-05T02:40:38;29.50;;;13.77;;
43146;SDS011;28752;48.266;7.402;2023-03-05T02:43:03;29.77;;;14.00;;
43146;SDS011;28752;48.266;7.402;2023-03-05T02:45:29;27.90;;;12.77;;
43146;SDS011;28752;48.266;7.402;2023-03-05T02:47:54;35.10;;;15.57;;
43146;SDS011;28752;48.266;7.402;2023-03-05T02:50:20;30.73;;;15.10;;
43146;SDS011;28752;48.266;7.402;2023-03-05T02:52:46;32.63;;;15.55;;
43146;SDS011;28752;48.266;7.402;2023-03-05T02:55:11;35.03;;;15.60;;
43146;SDS011;28752;48.266;7.402;2023-03-05T02:57:37;38.58;;;16.25;;
43146;SDS011;28752;48.266;7.402;2023-03-05T03:00:03;34.80;;;15.17;;
43146;SDS011;28752;48.266;7.402;2023-03-05T03:02:29;37.20;;;16.63;;
43146;SDS011;28752;48.266;7.402;2023-03-05T03:04:55;33.13;;;15.25;;
43146;SDS011;28752;48.266;7.402;2023-03-05T03:07:21;35.00;;;14.50;;
43146;SDS011;28752;48.266;7.402;2023-03-05T03:09:46;33.40;;;16.17;;
43146;SDS011;28752;48.266;7.402;2023-03-05T03:12:13;31.63;;;15.20;;
43146;SDS011;28752;48.266;7.402;2023-03-05T03:17:08;30.95;;;14.88;;
43146;SDS011;28752;48.266;7.402;2023-03-05T03:19:38;36.95;;;16.75;;
43146;SDS011;28752;48.266;7.402;2023-03-05T03:24:31;34.53;;;15.77;;
43146;SDS011;28752;48.266;7.402;2023-03-05T03:26:57;36.13;;;15.77;;
43146;SDS011;28752;48.266;7.402;2023-03-05T03:29:22;29.17;;;13.77;;
43146;SDS011;28752;48.266;7.402;2023-03-05T03:31:48;24.50;;;11.50;;
43146;SDS011;28752;48.266;7.402;2023-03-05T03:34:14;38.00;;;17.97;;
43146;SDS011;28752;48.266;7.402;2023-03-05T03:36:44;41.53;;;19.10;;
43146;SDS011;28752;48.266;7.402;2023-03-05T03:39:12;35.63;;;16.58;;
43146;SDS011;28752;48.266;7.402;2023-03-05T03:41:43;33.00;;;16.15;;
43146;SDS011;28752;48.266;7.402;2023-03-05T03:44:10;35.63;;;15.40;;
43146;SDS011;28752;48.266;7.402;2023-03-05T03:46:37;35.35;;;16.40;;
43146;SDS011;28752;48.266;7.402;2023-03-05T03:49:03;33.90;;;15.35;;
43146;SDS011;28752;48.266;7.402;2023-03-05T03:51:30;33.53;;;16.50;;
43146;SDS011;28752;48.266;7.402;2023-03-05T03:53:55;33.13;;;15.77;;
43146;SDS011;28752;48.266;7.402;2023-03-05T03:56:21;36.70;;;15.90;;
43146;SDS011;28752;48.266;7.402;2023-03-05T03:58:48;34.97;;;15.57;;
43146;SDS011;28752;48.266;7.402;2023-03-05T04:01:16;36.13;;;16.38;;
43146;SDS011;28752;48.266;7.402;2023-03-05T04:03:41;33.55;;;15.93;;
43146;SDS011;28752;48.266;7.402;2023-03-05T04:06:07;37.13;;;15.47;;
43146;SDS011;28752;48.266;7.402;2023-03-05T04:08:32;35.13;;;15.73;;
43146;SDS011;28752;48.266;7.402;2023-03-05T04:10:59;33.30;;;16.07;;
43146;SDS011;28752;48.266;7.402;2023-03-05T04:13:24;33.83;;;16.15;;
43146;SDS011;28752;48.266;7.402;2023-03-05T04:15:50;36.80;;;17.57;;
43146;SDS011;28752;48.266;7.402;2023-03-05T04:18:15;35.00;;;17.07;;
43146;SDS011;28752;48.266;7.402;2023-03-05T04:20:41;37.70;;;16.97;;
43146;SDS011;28752;48.266;7.402;2023-03-05T04:23:06;34.07;;;15.83;;
43146;SDS011;28752;48.266;7.402;2023-03-05T04:25:31;40.07;;;17.20;;
43146;SDS011;28752;48.266;7.402;2023-03-05T04:27:57;37.67;;;16.57;;
43146;SDS011;28752;48.266;7.402;2023-03-05T04:30:22;37.23;;;18.07;;
43146;SDS011;28752;48.266;7.402;2023-03-05T04:32:47;36.73;;;15.77;;
43146;SDS011;28752;48.266;7.402;2023-03-05T04:35:13;36.07;;;15.70;;
43146;SDS011;28752;48.266;7.402;2023-03-05T04:37:38;33.23;;;14.80;;
43146;SDS011;28752;48.266;7.402;2023-03-05T04:40:03;31.97;;;15.17;;
43146;SDS011;28752;48.266;7.402;2023-03-05T04:42:29;35.58;;;16.75;;
43146;SDS011;28752;48.266;7.402;2023-03-05T04:44:56;32.83;;;13.75;;
43146;SDS011;28752;48.266;7.402;2023-03-05T04:52:12;30.57;;;13.40;;
43146;SDS011;28752;48.266;7.402;2023-03-05T04:59:30;37.27;;;15.03;;
43146;SDS011;28752;48.266;7.402;2023-03-05T05:01:55;38.33;;;17.45;;
43146;SDS011;28752;48.266;7.402;2023-03-05T05:04:20;42.50;;;18.73;;
43146;SDS011;28752;48.266;7.402;2023-03-05T05:06:46;47.33;;;20.17;;
43146;SDS011;28752;48.266;7.402;2023-03-05T05:09:11;49.13;;;22.03;;
43146;SDS011;28752;48.266;7.402;2023-03-05T05:11:37;45.17;;;21.40;;
43146;SDS011;28752;48.266;7.402;2023-03-05T05:14:03;51.42;;;21.88;;
43146;SDS011;28752;48.266;7.402;2023-03-05T05:16:28;51.67;;;21.47;;
43146;SDS011;28752;48.266;7.402;2023-03-05T05:18:54;54.07;;;22.63;;
43146;SDS011;28752;48.266;7.402;2023-03-05T05:21:19;52.00;;;23.30;;
43146;SDS011;28752;48.266;7.402;2023-03-05T05:23:44;55.77;;;24.40;;
43146;SDS011;28752;48.266;7.402;2023-03-05T05:26:10;57.83;;;23.87;;
43146;SDS011;28752;48.266;7.402;2023-03-05T05:28:38;63.33;;;26.00;;
43146;SDS011;28752;48.266;7.402;2023-03-05T05:31:06;55.30;;;24.15;;
43146;SDS011;28752;48.266;7.402;2023-03-05T05:33:33;73.35;;;33.92;;
43146;SDS011;28752;48.266;7.402;2023-03-05T05:36:00;59.13;;;25.27;;
43146;SDS011;28752;48.266;7.402;2023-03-05T05:38:27;58.22;;;23.67;;
43146;SDS011;28752;48.266;7.402;2023-03-05T05:40:52;59.30;;;24.57;;
43146;SDS011;28752;48.266;7.402;2023-03-05T05:43:18;55.17;;;23.43;;
43146;SDS011;28752;48.266;7.402;2023-03-05T05:45:43;60.00;;;24.20;;
43146;SDS011;28752;48.266;7.402;2023-03-05T05:48:09;51.92;;;22.80;;
43146;SDS011;28752;48.266;7.402;2023-03-05T05:50:34;56.97;;;23.60;;
43146;SDS011;28752;48.266;7.402;2023-03-05T05:53:02;53.70;;;23.90;;
43146;SDS011;28752;48.266;7.402;2023-03-05T05:55:28;60.00;;;24.57;;
43146;SDS011;28752;48.266;7.402;2023-03-05T05:57:53;58.43;;;24.10;;
43146;SDS011;28752;48.266;7.402;2023-03-05T06:00:18;55.43;;;24.47;;
43146;SDS011;28752;48.266;7.402;2023-03-05T06:02:44;52.38;;;23.95;;
43146;SDS011;28752;48.266;7.402;2023-03-05T06:05:10;59.37;;;24.47;;
43146;SDS011;28752;48.266;7.402;2023-03-05T06:07:37;54.47;;;24.38;;
43146;SDS011;28752;48.266;7.402;2023-03-05T06:10:03;51.67;;;23.60;;
43146;SDS011;28752;48.266;7.402;2023-03-05T06:12:28;63.50;;;24.90;;
43146;SDS011;28752;48.266;7.402;2023-03-05T06:14:54;56.30;;;24.00;;
43146;SDS011;28752;48.266;7.402;2023-03-05T06:17:19;53.47;;;24.70;;
43146;SDS011;28752;48.266;7.402;2023-03-05T06:19:45;49.27;;;23.20;;
43146;SDS011;28752;48.266;7.402;2023-03-05T06:22:10;53.27;;;24.23;;
43146;SDS011;28752;48.266;7.402;2023-03-05T06:24:36;53.37;;;23.63;;
43146;SDS011;28752;48.266;7.402;2023-03-05T06:27:03;59.70;;;23.33;;
43146;SDS011;28752;48.266;7.402;2023-03-05T06:29:29;49.95;;;22.27;;
43146;SDS011;28752;48.266;7.402;2023-03-05T06:31:54;53.57;;;23.40;;
43146;SDS011;28752;48.266;7.402;2023-03-05T06:34:19;61.77;;;24.30;;
43146;SDS011;28752;48.266;7.402;2023-03-05T06:36:45;54.03;;;21.97;;
43146;SDS011;28752;48.266;7.402;2023-03-05T06:39:10;52.40;;;22.70;;
43146;SDS011;28752;48.266;7.402;2023-03-05T06:41:36;54.38;;;23.58;;
43146;SDS011;28752;48.266;7.402;2023-03-05T06:44:01;50.77;;;22.97;;
43146;SDS011;28752;48.266;7.402;2023-03-05T06:46:28;52.22;;;23.25;;
43146;SDS011;28752;48.266;7.402;2023-03-05T06:48:57;53.72;;;23.55;;
43146;SDS011;28752;48.266;7.402;2023-03-05T06:51:24;48.92;;;22.40;;
43146;SDS011;28752;48.266;7.402;2023-03-05T06:53:51;53.45;;;23.90;;
43146;SDS011;28752;48.266;7.402;2023-03-05T06:56:18;56.47;;;22.65;;
43146;SDS011;28752;48.266;7.402;2023-03-05T06:58:45;49.15;;;22.80;;
43146;SDS011;28752;48.266;7.402;2023-03-05T07:01:12;55.55;;;23.38;;
43146;SDS011;28752;48.266;7.402;2023-03-05T07:03:39;54.40;;;22.88;;
43146;SDS011;28752;48.266;7.402;2023-03-05T07:06:06;51.63;;;22.27;;
43146;SDS011;28752;48.266;7.402;2023-03-05T07:08:34;51.50;;;22.80;;
43146;SDS011;28752;48.266;7.402;2023-03-05T07:11:01;56.45;;;24.33;;
43146;SDS011;28752;48.266;7.402;2023-03-05T07:13:26;57.05;;;22.92;;
43146;SDS011;28752;48.266;7.402;2023-03-05T07:15:52;55.45;;;24.10;;
43146;SDS011;28752;48.266;7.402;2023-03-05T07:18:18;56.45;;;24.48;;
43146;SDS011;28752;48.266;7.402;2023-03-05T07:20:43;59.10;;;26.37;;
43146;SDS011;28752;48.266;7.402;2023-03-05T07:23:09;57.67;;;26.10;;
43146;SDS011;28752;48.266;7.402;2023-03-05T07:25:35;55.17;;;24.10;;
43146;SDS011;28752;48.266;7.402;2023-03-05T07:28:02;56.95;;;24.30;;
43146;SDS011;28752;48.266;7.402;2023-03-05T07:30:29;56.78;;;24.65;;
43146;SDS011;28752;48.266;7.402;2023-03-05T07:32:55;53.38;;;24.02;;
43146;SDS011;28752;48.266;7.402;2023-03-05T07:35:20;53.40;;;23.57;;
43146;SDS011;28752;48.266;7.402;2023-03-05T07:37:45;50.77;;;23.70;;
43146;SDS011;28752;48.266;7.402;2023-03-05T07:40:12;55.90;;;24.33;;
43146;SDS011;28752;48.266;7.402;2023-03-05T07:42:38;55.70;;;24.38;;
43146;SDS011;28752;48.266;7.402;2023-03-05T07:45:03;59.50;;;24.27;;
43146;SDS011;28752;48.266;7.402;2023-03-05T07:47:29;58.55;;;24.15;;
43146;SDS011;28752;48.266;7.402;2023-03-05T07:49:54;59.23;;;26.20;;
43146;SDS011;28752;48.266;7.402;2023-03-05T07:52:20;58.87;;;26.40;;
43146;SDS011;28752;48.266;7.402;2023-03-05T07:54:45;66.30;;;28.90;;
43146;SDS011;28752;48.266;7.402;2023-03-05T07:57:11;62.73;;;26.77;;
43146;SDS011;28752;48.266;7.402;2023-03-05T07:59:37;59.78;;;27.65;;
43146;SDS011;28752;48.266;7.402;2023-03-05T08:02:03;61.67;;;27.20;;
43146;SDS011;28752;48.266;7.402;2023-03-05T08:09:21;54.95;;;24.58;;
43146;SDS011;28752;48.266;7.402;2023-03-05T08:11:46;57.67;;;25.03;;
43146;SDS011;28752;48.266;7.402;2023-03-05T08:14:12;62.40;;;26.27;;
43146;SDS011;28752;48.266;7.402;2023-03-05T08:16:37;61.53;;;26.40;;
43146;SDS011;28752;48.266;7.402;2023-03-05T08:19:03;59.40;;;27.02;;
43146;SDS011;28752;48.266;7.402;2023-03-05T08:21:32;59.90;;;26.80;;
43146;SDS011;28752;48.266;7.402;2023-03-05T08:24:04;64.63;;;25.30;;
43146;SDS011;28752;48.266;7.402;2023-03-05T08:26:34;60.65;;;27.05;;
43146;SDS011;28752;48.266;7.402;2023-03-05T08:29:02;64.53;;;26.00;;
43146;SDS011;28752;48.266;7.402;2023-03-05T08:31:28;64.53;;;27.15;;
43146;SDS011;28752;48.266;7.402;2023-03-05T08:33:55;58.13;;;27.83;;
43146;SDS011;28752;48.266;7.402;2023-03-05T08:36:22;55.78;;;26.02;;
43146;SDS011;28752;48.266;7.402;2023-03-05T08:38:47;62.77;;;26.77;;
43146;SDS011;28752;48.266;7.402;2023-03-05T08:41:13;61.42;;;27.80;;
43146;SDS011;28752;48.266;7.402;2023-03-05T08:43:39;56.75;;;26.08;;
43146;SDS011;28752;48.266;7.402;2023-03-05T08:46:05;57.72;;;26.70;;
43146;SDS011;28752;48.266;7.402;2023-03-05T08:48:31;55.25;;;26.42;;
43146;SDS011;28752;48.266;7.402;2023-03-05T08:51:08;59.22;;;27.23;;
43146;SDS011;28752;48.266;7.402;2023-03-05T08:53:36;59.05;;;27.15;;
43146;SDS011;28752;48.266;7.402;2023-03-05T08:56:02;64.30;;;26.45;;
43146;SDS011;28752;48.266;7.402;2023-03-05T08:58:28;62.35;;;28.45;;
43146;SDS011;28752;48.266;7.402;2023-03-05T09:00:53;58.65;;;28.50;;
43146;SDS011;28752;48.266;7.402;2023-03-05T09:08:10;56.83;;;26.10;;
43146;SDS011;28752;48.266;7.402;2023-03-05T09:10:40;63.15;;;29.48;;
43146;SDS011;28752;48.266;7.402;2023-03-05T09:13:06;63.97;;;28.60;;
43146;SDS011;28752;48.266;7.402;2023-03-05T09:15:32;68.43;;;30.13;;
43146;SDS011;28752;48.266;7.402;2023-03-05T09:17:57;64.60;;;29.50;;
43146;SDS011;28752;48.266;7.402;2023-03-05T09:20:23;57.15;;;28.25;;
43146;SDS011;28752;48.266;7.402;2023-03-05T09:22:49;64.17;;;29.53;;
43146;SDS011;28752;48.266;7.402;2023-03-05T09:25:14;61.13;;;28.90;;
43146;SDS011;28752;48.266;7.402;2023-03-05T09:27:39;58.70;;;26.97;;
43146;SDS011;28752;48.266;7.402;2023-03-05T09:30:05;56.83;;;26.33;;
43146;SDS011;28752;48.266;7.402;2023-03-05T09:37:23;58.50;;;25.60;;
43146;SDS011;28752;48.266;7.402;2023-03-05T09:39:48;58.38;;;25.88;;
43146;SDS011;28752;48.266;7.402;2023-03-05T09:42:27;54.27;;;25.17;;
43146;SDS011;28752;48.266;7.402;2023-03-05T09:47:44;55.08;;;25.20;;
43146;SDS011;28752;48.266;7.402;2023-03-05T09:53:13;53.67;;;25.95;;
43146;SDS011;28752;48.266;7.402;2023-03-05T09:55:52;54.58;;;24.70;;
43146;SDS011;28752;48.266;7.402;2023-03-05T09:58:33;49.58;;;23.17;;
43146;SDS011;28752;48.266;7.402;2023-03-05T10:01:00;54.80;;;28.02;;
43146;SDS011;28752;48.266;7.402;2023-03-05T10:03:33;59.15;;;28.02;;
43146;SDS011;28752;48.266;7.402;2023-03-05T10:06:33;50.55;;;23.63;;
43146;SDS011;28752;48.266;7.402;2023-03-05T10:11:37;46.97;;;21.95;;
43146;SDS011;28752;48.266;7.402;2023-03-05T10:14:24;45.60;;;20.80;;
43146;SDS011;28752;48.266;7.402;2023-03-05T10:17:10;47.08;;;22.83;;
43146;SDS011;28752;48.266;7.402;2023-03-05T10:19:53;43.80;;;21.03;;
43146;SDS011;28752;48.266;7.402;2023-03-05T10:27:58;46.10;;;21.83;;
43146;SDS011;28752;48.266;7.402;2023-03-05T10:42:01;40.75;;;19.98;;
43146;SDS011;28752;48.266;7.402;2023-03-05T10:44:41;34.15;;;15.90;;
43146;SDS011;28752;48.266;7.402;2023-03-05T10:47:12;37.78;;;18.83;;
43146;SDS011;28752;48.266;7.402;2023-03-05T10:49:42;33.45;;;18.00;;
43146;SDS011;28752;48.266;7.402;2023-03-05T10:52:15;36.60;;;18.08;;
43146;SDS011;28752;48.266;7.402;2023-03-05T10:54:42;37.97;;;17.77;;
43146;SDS011;28752;48.266;7.402;2023-03-05T10:59:36;32.13;;;15.98;;
43146;SDS011;28752;48.266;7.402;2023-03-05T11:02:05;30.70;;;15.80;;
43146;SDS011;28752;48.266;7.402;2023-03-05T11:04:33;30.45;;;14.57;;
43146;SDS011;28752;48.266;7.402;2023-03-05T11:07:27;29.85;;;15.00;;
43146;SDS011;28752;48.266;7.402;2023-03-05T11:12:26;31.52;;;16.45;;
43146;SDS011;28752;48.266;7.402;2023-03-05T11:17:34;30.15;;;14.70;;
43146;SDS011;28752;48.266;7.402;2023-03-05T11:23:00;28.45;;;14.07;;
43146;SDS011;28752;48.266;7.402;2023-03-05T11:25:27;28.15;;;13.57;;
43146;SDS011;28752;48.266;7.402;2023-03-05T11:27:59;30.13;;;15.50;;
43146;SDS011;28752;48.266;7.402;2023-03-05T11:35:41;29.52;;;15.32;;
43146;SDS011;28752;48.266;7.402;2023-03-05T11:38:21;28.60;;;14.85;;
43146;SDS011;28752;48.266;7.402;2023-03-05T11:40:51;28.33;;;14.77;;
43146;SDS011;28752;48.266;7.402;2023-03-05T11:43:19;28.25;;;15.65;;
43146;SDS011;28752;48.266;7.402;2023-03-05T11:45:48;26.00;;;14.15;;
43146;SDS011;28752;48.266;7.402;2023-03-05T11:48:18;24.35;;;14.07;;
43146;SDS011;28752;48.266;7.402;2023-03-05T11:50:53;30.15;;;16.83;;
43146;SDS011;28752;48.266;7.402;2023-03-05T11:53:31;32.77;;;16.10;;
43146;SDS011;28752;48.266;7.402;2023-03-05T11:56:04;31.67;;;15.70;;
43146;SDS011;28752;48.266;7.402;2023-03-05T11:58:53;27.15;;;15.57;;
43146;SDS011;28752;48.266;7.402;2023-03-05T12:01:25;29.73;;;15.68;;
43146;SDS011;28752;48.266;7.402;2023-03-05T12:03:53;31.92;;;15.85;;
43146;SDS011;28752;48.266;7.402;2023-03-05T12:06:23;29.13;;;16.55;;
43146;SDS011;28752;48.266;7.402;2023-03-05T12:09:06;29.48;;;15.98;;
43146;SDS011;28752;48.266;7.402;2023-03-05T12:11:37;30.63;;;16.30;;
43146;SDS011;28752;48.266;7.402;2023-03-05T12:19:53;32.95;;;17.27;;
43146;SDS011;28752;48.266;7.402;2023-03-05T12:22:32;30.75;;;16.20;;
43146;SDS011;28752;48.266;7.402;2023-03-05T12:25:24;31.23;;;16.08;;
43146;SDS011;28752;48.266;7.402;2023-03-05T12:27:56;29.65;;;15.80;;
43146;SDS011;28752;48.266;7.402;2023-03-05T12:30:51;30.10;;;15.30;;
43146;SDS011;28752;48.266;7.402;2023-03-05T12:33:31;30.13;;;16.30;;
43146;SDS011;28752;48.266;7.402;2023-03-05T12:38:53;33.97;;;17.38;;
43146;SDS011;28752;48.266;7.402;2023-03-05T12:46:28;30.67;;;17.58;;
43146;SDS011;28752;48.266;7.402;2023-03-05T12:48:56;34.80;;;16.83;;
43146;SDS011;28752;48.266;7.402;2023-03-05T12:51:32;26.03;;;15.17;;
43146;SDS011;28752;48.266;7.402;2023-03-05T12:57:01;33.75;;;17.05;;
43146;SDS011;28752;48.266;7.402;2023-03-05T13:02:45;29.20;;;14.77;;
43146;SDS011;28752;48.266;7.402;2023-03-05T13:05:20;31.33;;;16.65;;
43146;SDS011;28752;48.266;7.402;2023-03-05T13:07:49;32.13;;;16.38;;
43146;SDS011;28752;48.266;7.402;2023-03-05T13:12:51;32.17;;;16.67;;
43146;SDS011;28752;48.266;7.402;2023-03-05T13:15:18;34.90;;;16.25;;
43146;SDS011;28752;48.266;7.402;2023-03-05T13:17:50;31.15;;;16.23;;
43146;SDS011;28752;48.266;7.402;2023-03-05T13:20:23;32.47;;;16.33;;
43146;SDS011;28752;48.266;7.402;2023-03-05T13:23:08;31.48;;;16.30;;
43146;SDS011;28752;48.266;7.402;2023-03-05T13:25:40;30.35;;;16.75;;
43146;SDS011;28752;48.266;7.402;2023-03-05T13:28:08;32.17;;;15.35;;
43146;SDS011;28752;48.266;7.402;2023-03-05T13:30:36;29.92;;;14.98;;
43146;SDS011;28752;48.266;7.402;2023-03-05T13:33:03;32.50;;;16.15;;
43146;SDS011;28752;48.266;7.402;2023-03-05T13:35:29;31.20;;;15.68;;
43146;SDS011;28752;48.266;7.402;2023-03-05T13:37:56;28.80;;;16.20;;
43146;SDS011;28752;48.266;7.402;2023-03-05T13:42:47;30.00;;;17.00;;
43146;SDS011;28752;48.266;7.402;2023-03-05T13:50:05;30.93;;;15.93;;
43146;SDS011;28752;48.266;7.402;2023-03-05T13:52:34;34.15;;;17.58;;
43146;SDS011;28752;48.266;7.402;2023-03-05T13:55:02;34.05;;;17.20;;
43146;SDS011;28752;48.266;7.402;2023-03-05T14:00:29;32.28;;;16.30;;
43146;SDS011;28752;48.266;7.402;2023-03-05T14:02:56;37.00;;;18.13;;
43146;SDS011;28752;48.266;7.402;2023-03-05T14:05:25;31.58;;;15.88;;
43146;SDS011;28752;48.266;7.402;2023-03-05T14:07:51;30.92;;;16.40;;
43146;SDS011;28752;48.266;7.402;2023-03-05T14:12:48;34.75;;;18.25;;
43146;SDS011;28752;48.266;7.402;2023-03-05T14:15:20;35.35;;;18.48;;
43146;SDS011;28752;48.266;7.402;2023-03-05T14:20:37;32.03;;;16.80;;
43146;SDS011;28752;48.266;7.402;2023-03-05T14:23:24;32.72;;;16.98;;
43146;SDS011;28752;48.266;7.402;2023-03-05T14:28:50;29.17;;;16.75;;
43146;SDS011;28752;48.266;7.402;2023-03-05T14:31:27;30.15;;;16.75;;
43146;SDS011;28752;48.266;7.402;2023-03-05T14:33:58;30.98;;;16.10;;
43146;SDS011;28752;48.266;7.402;2023-03-05T14:36:27;29.25;;;16.67;;
43146;SDS011;28752;48.266;7.402;2023-03-05T14:38:54;30.00;;;15.82;;
43146;SDS011;28752;48.266;7.402;2023-03-05T14:43:58;31.80;;;17.33;;
43146;SDS011;28752;48.266;7.402;2023-03-05T14:46:23;33.35;;;18.55;;
43146;SDS011;28752;48.266;7.402;2023-03-05T14:48:49;36.70;;;18.73;;
43146;SDS011;28752;48.266;7.402;2023-03-05T14:51:14;35.37;;;18.23;;
43146;SDS011;28752;48.266;7.402;2023-03-05T14:53:43;32.77;;;18.73;;
43146;SDS011;28752;48.266;7.402;2023-03-05T14:56:24;32.97;;;17.95;;
43146;SDS011;28752;48.266;7.402;2023-03-05T14:58:52;34.08;;;18.15;;
43146;SDS011;28752;48.266;7.402;2023-03-05T15:01:17;32.72;;;17.08;;
43146;SDS011;28752;48.266;7.402;2023-03-05T15:03:43;30.20;;;17.23;;
43146;SDS011;28752;48.266;7.402;2023-03-05T15:06:15;33.38;;;16.70;;
43146;SDS011;28752;48.266;7.402;2023-03-05T15:08:44;34.15;;;18.10;;
43146;SDS011;28752;48.266;7.402;2023-03-05T15:11:09;30.17;;;16.47;;
43146;SDS011;28752;48.266;7.402;2023-03-05T15:13:34;31.27;;;17.67;;
43146;SDS011;28752;48.266;7.402;2023-03-05T15:16:00;31.20;;;16.10;;
43146;SDS011;28752;48.266;7.402;2023-03-05T15:18:28;29.27;;;16.52;;
43146;SDS011;28752;48.266;7.402;2023-03-05T15:20:54;48.03;;;23.67;;
43146;SDS011;28752;48.266;7.402;2023-03-05T15:23:21;32.65;;;19.17;;
43146;SDS011;28752;48.266;7.402;2023-03-05T15:25:47;32.40;;;19.70;;
43146;SDS011;28752;48.266;7.402;2023-03-05T15:28:12;38.13;;;19.65;;
43146;SDS011;28752;48.266;7.402;2023-03-05T15:30:40;40.25;;;20.77;;
43146;SDS011;28752;48.266;7.402;2023-03-05T15:33:10;37.60;;;19.83;;
43146;SDS011;28752;48.266;7.402;2023-03-05T15:35:38;36.63;;;19.83;;
43146;SDS011;28752;48.266;7.402;2023-03-05T15:38:04;37.45;;;19.20;;
43146;SDS011;28752;48.266;7.402;2023-03-05T15:40:30;36.93;;;20.63;;
43146;SDS011;28752;48.266;7.402;2023-03-05T15:42:56;36.60;;;20.17;;
43146;SDS011;28752;48.266;7.402;2023-03-05T15:45:22;36.40;;;20.45;;
43146;SDS011;28752;48.266;7.402;2023-03-05T15:47:48;36.75;;;19.65;;
43146;SDS011;28752;48.266;7.402;2023-03-05T15:50:14;34.47;;;19.65;;
43146;SDS011;28752;48.266;7.402;2023-03-05T15:52:40;33.60;;;20.10;;
43146;SDS011;28752;48.266;7.402;2023-03-05T15:55:06;39.97;;;20.40;;
43146;SDS011;28752;48.266;7.402;2023-03-05T15:57:33;36.22;;;18.27;;
43146;SDS011;28752;48.266;7.402;2023-03-05T16:00:00;37.63;;;19.35;;
43146;SDS011;28752;48.266;7.402;2023-03-05T16:02:27;38.60;;;20.95;;
43146;SDS011;28752;48.266;7.402;2023-03-05T16:04:52;41.53;;;24.50;;
43146;SDS011;28752;48.266;7.402;2023-03-05T16:07:18;40.63;;;23.93;;
43146;SDS011;28752;48.266;7.402;2023-03-05T16:09:45;44.67;;;24.87;;
43146;SDS011;28752;48.266;7.402;2023-03-05T16:12:15;45.35;;;24.63;;
43146;SDS011;28752;48.266;7.402;2023-03-05T16:14:44;41.80;;;22.67;;
43146;SDS011;28752;48.266;7.402;2023-03-05T16:17:10;47.05;;;25.48;;
43146;SDS011;28752;48.266;7.402;2023-03-05T16:19:39;37.60;;;19.77;;
43146;SDS011;28752;48.266;7.402;2023-03-05T16:22:06;45.25;;;25.13;;
43146;SDS011;28752;48.266;7.402;2023-03-05T16:24:32;42.35;;;21.95;;
43146;SDS011;28752;48.266;7.402;2023-03-05T16:26:58;37.07;;;20.10;;
43146;SDS011;28752;48.266;7.402;2023-03-05T16:29:23;36.38;;;20.17;;
43146;SDS011;28752;48.266;7.402;2023-03-05T16:31:49;32.83;;;18.98;;